sensor_id;sensor_type;location;lat;lon;timestamp;pressure;altitude;pressure_sealevel;temperature;humidity
23223;BME280;11780;13.904;100.620;2023-09-19T00:01:38;101108.75;;;30.34;nan
23223;BME280;11780;13.904;100.620;2023-09-19T00:04:08;101107.31;;;30.37;nan
23223;BME280;11780;13.904;100.620;2023-09-19T00:06:39;101114.59;;;30.33;nan
23223;BME280;11780;13.904;100.620;2023-09-19T00:09:10;101118.16;;;30.33;nan
23223;BME280;11780;13.904;100.620;2023-09-19T00:11:40;101119.63;;;30.31;nan
23223;BME280;11780;13.904;100.620;2023-09-19T00:14:11;101116.53;;;30.32;nan
23223;BME280;11780;13.904;100.620;2023-09-19T00:16:43;101117.38;;;30.33;nan
23223;BME280;11780;13.904;100.620;2023-09-19T00:19:17;101114.91;;;30.31;nan
23223;BME280;11780;13.904;100.620;2023-09-19T00:21:47;101122.88;;;30.33;nan
23223;BME280;11780;13.904;100.620;2023-09-19T00:24:17;101132.81;;;30.34;nan
23223;BME280;11780;13.904;100.620;2023-09-19T00:26:48;101128.41;;;30.33;nan
23223;BME280;11780;13.904;100.620;2023-09-19T00:29:18;101137.81;;;30.32;nan
23223;BME280;11780;13.904;100.620;2023-09-19T00:31:50;101137.50;;;30.33;nan
23223;BME280;11780;13.904;100.620;2023-09-19T00:34:20;101141.38;;;30.32;nan
23223;BME280;11780;13.904;100.620;2023-09-19T00:36:51;101143.34;;;30.32;nan
23223;BME280;11780;13.904;100.620;2023-09-19T00:39:23;101143.94;;;30.29;nan
23223;BME280;11780;13.904;100.620;2023-09-19T00:41:55;101144.75;;;30.29;nan
23223;BME280;11780;13.904;100.620;2023-09-19T00:44:26;101148.34;;;30.30;nan
23223;BME280;11780;13.904;100.620;2023-09-19T00:46:56;101154.03;;;30.33;nan
23223;BME280;11780;13.904;100.620;2023-09-19T00:49:27;101152.91;;;30.34;nan
23223;BME280;11780;13.904;100.620;2023-09-19T00:51:59;101161.91;;;30.40;nan
23223;BME280;11780;13.904;100.620;2023-09-19T00:54:30;101163.97;;;30.34;nan
23223;BME280;11780;13.904;100.620;2023-09-19T00:57:04;101171.94;;;30.36;nan
23223;BME280;11780;13.904;100.620;2023-09-19T00:59:35;101174.91;;;30.40;nan
23223;BME280;11780;13.904;100.620;2023-09-19T01:02:06;101180.72;;;30.38;nan
23223;BME280;11780;13.904;100.620;2023-09-19T01:04:38;101179.06;;;30.37;nan
23223;BME280;11780;13.904;100.620;2023-09-19T01:07:09;101186.22;;;30.38;nan
23223;BME280;11780;13.904;100.620;2023-09-19T01:09:41;101195.25;;;30.44;nan
23223;BME280;11780;13.904;100.620;2023-09-19T01:12:12;101186.63;;;30.45;nan
23223;BME280;11780;13.904;100.620;2023-09-19T01:14:59;101190.72;;;30.48;nan
23223;BME280;11780;13.904;100.620;2023-09-19T01:18:00;101196.22;;;30.48;nan
23223;BME280;11780;13.904;100.620;2023-09-19T01:31:47;101210.25;;;30.51;nan
23223;BME280;11780;13.904;100.620;2023-09-19T01:34:19;101208.28;;;30.52;nan
23223;BME280;11780;13.904;100.620;2023-09-19T01:36:50;101207.78;;;30.50;nan
23223;BME280;11780;13.904;100.620;2023-09-19T01:39:21;101211.06;;;30.52;nan
23223;BME280;11780;13.904;100.620;2023-09-19T01:45:37;101209.09;;;30.52;nan
23223;BME280;11780;13.904;100.620;2023-09-19T01:48:30;101208.63;;;30.50;nan
23223;BME280;11780;13.904;100.620;2023-09-19T01:51:08;101204.50;;;30.48;nan
23223;BME280;11780;13.904;100.620;2023-09-19T01:54:03;101203.91;;;30.51;nan
23223;BME280;11780;13.904;100.620;2023-09-19T01:56:36;101207.50;;;30.51;nan
23223;BME280;11780;13.904;100.620;2023-09-19T01:59:22;101215.44;;;30.53;nan
23223;BME280;11780;13.904;100.620;2023-09-19T02:01:54;101203.56;;;30.52;nan
23223;BME280;11780;13.904;100.620;2023-09-19T02:04:26;101211.56;;;30.54;nan
23223;BME280;11780;13.904;100.620;2023-09-19T02:06:57;101221.19;;;30.57;nan
23223;BME280;11780;13.904;100.620;2023-09-19T02:09:28;101219.25;;;30.57;nan
23223;BME280;11780;13.904;100.620;2023-09-19T02:11:58;101218.63;;;30.60;nan
23223;BME280;11780;13.904;100.620;2023-09-19T02:14:29;101225.28;;;30.59;nan
23223;BME280;11780;13.904;100.620;2023-09-19T02:16:59;101226.28;;;30.63;nan
23223;BME280;11780;13.904;100.620;2023-09-19T02:19:29;101229.56;;;30.65;nan
23223;BME280;11780;13.904;100.620;2023-09-19T02:22:01;101231.53;;;30.65;nan
23223;BME280;11780;13.904;100.620;2023-09-19T02:24:37;101230.06;;;30.67;nan
23223;BME280;11780;13.904;100.620;2023-09-19T02:27:08;101222.91;;;30.66;nan
23223;BME280;11780;13.904;100.620;2023-09-19T02:29:39;101234.47;;;30.68;nan
23223;BME280;11780;13.904;100.620;2023-09-19T02:32:09;101233.63;;;30.68;nan
23223;BME280;11780;13.904;100.620;2023-09-19T02:34:40;101231.72;;;30.68;nan
23223;BME280;11780;13.904;100.620;2023-09-19T02:37:12;101228.31;;;30.72;nan
23223;BME280;11780;13.904;100.620;2023-09-19T02:39:44;101220.34;;;30.70;nan
23223;BME280;11780;13.904;100.620;2023-09-19T02:42:14;101222.81;;;30.72;nan
23223;BME280;11780;13.904;100.620;2023-09-19T02:44:45;101227.22;;;30.73;nan
23223;BME280;11780;13.904;100.620;2023-09-19T02:47:16;101231.59;;;30.74;nan
23223;BME280;11780;13.904;100.620;2023-09-19T02:49:47;101234.84;;;30.76;nan
23223;BME280;11780;13.904;100.620;2023-09-19T02:52:18;101224.63;;;30.76;nan
23223;BME280;11780;13.904;100.620;2023-09-19T02:54:49;101225.66;;;30.80;nan
23223;BME280;11780;13.904;100.620;2023-09-19T02:57:19;101227.06;;;30.78;nan
23223;BME280;11780;13.904;100.620;2023-09-19T02:59:49;101228.09;;;30.82;nan
23223;BME280;11780;13.904;100.620;2023-09-19T03:02:20;101225.31;;;30.82;nan
23223;BME280;11780;13.904;100.620;2023-09-19T03:04:54;101224.81;;;30.80;nan
23223;BME280;11780;13.904;100.620;2023-09-19T03:07:26;101214.59;;;30.80;nan
23223;BME280;11780;13.904;100.620;2023-09-19T03:09:57;101224.19;;;30.83;nan
23223;BME280;11780;13.904;100.620;2023-09-19T03:12:27;101220.31;;;30.84;nan
23223;BME280;11780;13.904;100.620;2023-09-19T03:14:59;101211.69;;;30.86;nan
23223;BME280;11780;13.904;100.620;2023-09-19T03:17:30;101212.53;;;30.86;nan
23223;BME280;11780;13.904;100.620;2023-09-19T03:20:01;101223.59;;;30.86;nan
23223;BME280;11780;13.904;100.620;2023-09-19T03:22:31;101216.59;;;30.89;nan
23223;BME280;11780;13.904;100.620;2023-09-19T03:25:03;101215.16;;;30.91;nan
23223;BME280;11780;13.904;100.620;2023-09-19T03:27:39;101213.22;;;30.92;nan
23223;BME280;11780;13.904;100.620;2023-09-19T03:30:10;101212.38;;;30.91;nan
23223;BME280;11780;13.904;100.620;2023-09-19T03:32:47;101211.25;;;30.92;nan
23223;BME280;11780;13.904;100.620;2023-09-19T03:35:20;101212.91;;;30.93;nan
23223;BME280;11780;13.904;100.620;2023-09-19T03:37:50;101204.31;;;30.95;nan
23223;BME280;11780;13.904;100.620;2023-09-19T03:40:23;101212.91;;;30.93;nan
23223;BME280;11780;13.904;100.620;2023-09-19T03:42:55;101213.41;;;30.95;nan
23223;BME280;11780;13.904;100.620;2023-09-19T03:45:26;101204.00;;;30.96;nan
23223;BME280;11780;13.904;100.620;2023-09-19T14:07:39;101095.59;;;31.13;69.24
23223;BME280;11780;13.904;100.620;2023-09-19T14:10:12;101107.31;;;31.19;69.09
23223;BME280;11780;13.904;100.620;2023-09-19T14:12:45;101108.34;;;31.32;69.08
23223;BME280;11780;13.904;100.620;2023-09-19T14:15:15;101103.63;;;31.33;69.11
23223;BME280;11780;13.904;100.620;2023-09-19T14:17:46;101098.44;;;31.40;69.08
23223;BME280;11780;13.904;100.620;2023-09-19T14:20:17;101105.13;;;31.48;69.10
23223;BME280;11780;13.904;100.620;2023-09-19T14:22:48;101106.78;;;31.49;68.66
23223;BME280;11780;13.904;100.620;2023-09-19T14:25:19;101108.09;;;31.51;68.59
23223;BME280;11780;13.904;100.620;2023-09-19T14:27:51;101101.28;;;31.57;68.70
23223;BME280;11780;13.904;100.620;2023-09-19T14:30:21;101113.47;;;31.56;68.58
23223;BME280;11780;13.904;100.620;2023-09-19T14:32:52;101110.06;;;31.59;68.39
23223;BME280;11780;13.904;100.620;2023-09-19T14:35:23;101112.84;;;31.59;68.63
23223;BME280;11780;13.904;100.620;2023-09-19T14:37:54;101127.97;;;31.62;68.33
23223;BME280;11780;13.904;100.620;2023-09-19T14:40:25;101124.72;;;31.60;68.56
23223;BME280;11780;13.904;100.620;2023-09-19T14:42:56;101126.34;;;31.61;68.60
23223;BME280;11780;13.904;100.620;2023-09-19T14:45:27;101132.19;;;31.59;68.77
23223;BME280;11780;13.904;100.620;2023-09-19T14:47:58;101134.31;;;31.63;68.53
23223;BME280;11780;13.904;100.620;2023-09-19T14:50:28;101137.09;;;31.63;68.47
23223;BME280;11780;13.904;100.620;2023-09-19T14:52:59;101142.44;;;31.59;68.62
23223;BME280;11780;13.904;100.620;2023-09-19T14:55:37;101144.56;;;31.62;68.68
23223;BME280;11780;13.904;100.620;2023-09-19T14:58:12;101151.88;;;31.58;68.72
23223;BME280;11780;13.904;100.620;2023-09-19T15:00:42;101144.56;;;31.62;68.70
23223;BME280;11780;13.904;100.620;2023-09-19T15:03:15;101145.88;;;31.65;68.58
23223;BME280;11780;13.904;100.620;2023-09-19T15:05:46;101150.44;;;31.69;68.65
23223;BME280;11780;13.904;100.620;2023-09-19T15:08:17;101152.38;;;31.69;69.88
23223;BME280;11780;13.904;100.620;2023-09-19T15:10:51;101161.22;;;31.71;70.28
23223;BME280;11780;13.904;100.620;2023-09-19T15:13:23;101151.78;;;31.72;70.19
23223;BME280;11780;13.904;100.620;2023-09-19T15:16:07;101152.91;;;31.71;69.98
23223;BME280;11780;13.904;100.620;2023-09-19T15:18:42;101154.19;;;31.65;70.49
23223;BME280;11780;13.904;100.620;2023-09-19T15:21:14;101159.88;;;31.68;70.61
23223;BME280;11780;13.904;100.620;2023-09-19T15:23:46;101165.53;;;31.63;70.88
23223;BME280;11780;13.904;100.620;2023-09-19T15:26:17;101155.63;;;31.62;71.18
23223;BME280;11780;13.904;100.620;2023-09-19T15:28:52;101154.19;;;31.65;71.32
23223;BME280;11780;13.904;100.620;2023-09-19T15:31:24;101158.72;;;31.61;71.65
23223;BME280;11780;13.904;100.620;2023-09-19T15:33:55;101156.56;;;31.57;71.76
23223;BME280;11780;13.904;100.620;2023-09-19T15:36:26;101160.69;;;31.60;71.67
23223;BME280;11780;13.904;100.620;2023-09-19T15:41:31;101164.25;;;31.61;71.59
23223;BME280;11780;13.904;100.620;2023-09-19T15:44:02;101163.09;;;31.62;72.77
23223;BME280;11780;13.904;100.620;2023-09-19T15:46:33;101160.84;;;31.64;72.17
23223;BME280;11780;13.904;100.620;2023-09-19T15:49:05;101168.50;;;31.67;72.38
23223;BME280;11780;13.904;100.620;2023-09-19T15:51:37;101164.91;;;31.66;72.13
23223;BME280;11780;13.904;100.620;2023-09-19T15:54:14;101155.81;;;31.66;71.81
23223;BME280;11780;13.904;100.620;2023-09-19T15:56:45;101161.66;;;31.64;72.46
23223;BME280;11780;13.904;100.620;2023-09-19T15:59:21;101153.56;;;31.68;72.37
23223;BME280;11780;13.904;100.620;2023-09-19T16:01:52;101156.81;;;31.70;72.29
23223;BME280;11780;13.904;100.620;2023-09-19T16:04:22;101162.66;;;31.68;71.92
23223;BME280;11780;13.904;100.620;2023-09-19T16:06:53;101162.97;;;31.67;70.78
23223;BME280;11780;13.904;100.620;2023-09-19T16:09:23;101159.09;;;31.68;70.88
23223;BME280;11780;13.904;100.620;2023-09-19T16:11:53;101159.88;;;31.68;72.00
23223;BME280;11780;13.904;100.620;2023-09-19T16:14:24;101155.47;;;31.67;72.59
23223;BME280;11780;13.904;100.620;2023-09-19T16:16:57;101153.56;;;31.68;71.51
23223;BME280;11780;13.904;100.620;2023-09-19T16:19:29;101153.06;;;31.66;72.26
23223;BME280;11780;13.904;100.620;2023-09-19T16:21:59;101165.75;;;31.67;72.40
23223;BME280;11780;13.904;100.620;2023-09-19T16:24:30;101159.09;;;31.68;71.70
23223;BME280;11780;13.904;100.620;2023-09-19T16:27:00;101164.63;;;31.68;71.82
23223;BME280;11780;13.904;100.620;2023-09-19T16:29:31;101166.88;;;31.66;71.94
23223;BME280;11780;13.904;100.620;2023-09-19T16:32:01;101177.94;;;31.66;71.84
23223;BME280;11780;13.904;100.620;2023-09-19T16:34:31;101177.94;;;31.66;71.50
23223;BME280;11780;13.904;100.620;2023-09-19T16:37:02;101179.56;;;31.67;nan
23223;BME280;11780;13.904;100.620;2023-09-19T16:39:32;101169.13;;;31.64;nan
23223;BME280;11780;13.904;100.620;2023-09-19T16:42:03;101174.66;;;31.64;nan
23223;BME280;11780;13.904;100.620;2023-09-19T16:44:46;101165.25;;;31.65;nan
23223;BME280;11780;13.904;100.620;2023-09-19T16:47:16;101169.66;;;31.66;nan
23223;BME280;11780;13.904;100.620;2023-09-19T16:49:47;101161.34;;;31.66;nan
23223;BME280;11780;13.904;100.620;2023-09-19T16:52:17;101154.19;;;31.65;nan
23223;BME280;11780;13.904;100.620;2023-09-19T16:54:48;101152.06;;;31.62;nan
23223;BME280;11780;13.904;100.620;2023-09-19T16:57:18;101149.28;;;31.62;nan
23223;BME280;11780;13.904;100.620;2023-09-19T16:59:52;101147.66;;;31.61;nan
23223;BME280;11780;13.904;100.620;2023-09-19T17:02:22;101142.94;;;31.61;nan
23223;BME280;11780;13.904;100.620;2023-09-19T17:04:53;101143.25;;;31.59;nan
23223;BME280;11780;13.904;100.620;2023-09-19T17:07:24;101143.59;;;31.58;nan
23223;BME280;11780;13.904;100.620;2023-09-19T17:09:55;101138.84;;;31.58;nan
23223;BME280;11780;13.904;100.620;2023-09-19T17:12:25;101128.13;;;31.57;nan
23223;BME280;11780;13.904;100.620;2023-09-19T17:14:57;101120.97;;;31.56;nan
23223;BME280;11780;13.904;100.620;2023-09-19T17:17:27;101112.66;;;31.56;nan
23223;BME280;11780;13.904;100.620;2023-09-19T17:19:58;101111.84;;;31.55;nan
23223;BME280;11780;13.904;100.620;2023-09-19T17:22:28;101110.22;;;31.54;nan
23223;BME280;11780;13.904;100.620;2023-09-19T17:25:00;101111.03;;;31.55;nan
23223;BME280;11780;13.904;100.620;2023-09-19T17:27:31;101098.34;;;31.54;nan
23223;BME280;11780;13.904;100.620;2023-09-19T17:30:02;101102.41;;;31.56;nan
23223;BME280;11780;13.904;100.620;2023-09-19T17:32:35;101099.16;;;31.54;nan
23223;BME280;11780;13.904;100.620;2023-09-19T17:35:06;101097.50;;;31.53;nan
23223;BME280;11780;13.904;100.620;2023-09-19T17:37:36;101092.31;;;31.52;nan
23223;BME280;11780;13.904;100.620;2023-09-19T17:40:11;101092.31;;;31.52;nan
23223;BME280;11780;13.904;100.620;2023-09-19T17:42:41;101086.47;;;31.53;nan
23223;BME280;11780;13.904;100.620;2023-09-19T17:45:13;101088.75;;;31.51;nan
23223;BME280;11780;13.904;100.620;2023-09-19T17:47:44;101085.16;;;31.51;nan
23223;BME280;11780;13.904;100.620;2023-09-19T17:50:14;101074.09;;;31.51;nan
23223;BME280;11780;13.904;100.620;2023-09-19T17:52:45;101072.47;;;31.50;nan
23223;BME280;11780;13.904;100.620;2023-09-19T17:55:16;101076.88;;;31.51;nan
23223;BME280;11780;13.904;100.620;2023-09-19T17:57:47;101074.09;;;31.51;nan
23223;BME280;11780;13.904;100.620;2023-09-19T18:00:20;101059.47;;;31.50;nan
23223;BME280;11780;13.904;100.620;2023-09-19T18:02:51;101063.88;;;31.51;nan
23223;BME280;11780;13.904;100.620;2023-09-19T18:05:22;101058.34;;;31.51;nan
23223;BME280;11780;13.904;100.620;2023-09-19T18:07:53;101067.25;;;31.48;nan
23223;BME280;11780;13.904;100.620;2023-09-19T18:10:24;101065.00;;;31.50;nan
23223;BME280;11780;13.904;100.620;2023-09-19T18:12:56;101068.91;;;31.49;nan
23223;BME280;11780;13.904;100.620;2023-09-19T18:15:26;101070.19;;;31.52;nan
23223;BME280;11780;13.904;100.620;2023-09-19T18:18:05;101069.69;;;31.50;nan
23223;BME280;11780;13.904;100.620;2023-09-19T18:20:41;101071.03;;;31.52;nan
23223;BME280;11780;13.904;100.620;2023-09-19T18:23:12;101072.16;;;31.51;nan
23223;BME280;11780;13.904;100.620;2023-09-19T18:25:42;101068.06;;;31.49;nan
23223;BME280;11780;13.904;100.620;2023-09-19T18:28:13;101072.47;;;31.50;nan
23223;BME280;11780;13.904;100.620;2023-09-19T18:30:44;101072.47;;;31.50;nan
23223;BME280;11780;13.904;100.620;2023-09-19T18:33:14;101070.34;;;31.47;nan
23223;BME280;11780;13.904;100.620;2023-09-19T18:35:45;101072.78;;;31.48;nan
23223;BME280;11780;13.904;100.620;2023-09-19T18:38:15;101076.38;;;31.49;nan
23223;BME280;11780;13.904;100.620;2023-09-19T18:40:46;101078.31;;;31.48;nan
23223;BME280;11780;13.904;100.620;2023-09-19T18:43:16;101072.78;;;31.48;nan
23223;BME280;11780;13.904;100.620;2023-09-19T18:45:57;101070.03;;;31.48;nan
23223;BME280;11780;13.904;100.620;2023-09-19T18:48:28;101066.13;;;31.49;nan
23223;BME280;11780;13.904;100.620;2023-09-19T18:51:06;101072.47;;;31.50;nan
23223;BME280;11780;13.904;100.620;2023-09-19T18:53:38;101066.94;;;31.50;nan
23223;BME280;11780;13.904;100.620;2023-09-19T18:56:17;101068.56;;;31.51;nan
23223;BME280;11780;13.904;100.620;2023-09-19T18:58:51;101066.13;;;31.49;nan
23223;BME280;11780;13.904;100.620;2023-09-19T19:01:21;101058.66;;;31.50;nan
23223;BME280;11780;13.904;100.620;2023-09-19T19:03:53;101057.34;;;31.47;nan
23223;BME280;11780;13.904;100.620;2023-09-19T19:06:24;101054.25;;;31.49;nan
23223;BME280;11780;13.904;100.620;2023-09-19T19:08:54;101050.69;;;31.48;nan
23223;BME280;11780;13.904;100.620;2023-09-19T19:11:25;101048.72;;;31.49;nan
23223;BME280;11780;13.904;100.620;2023-09-19T19:14:00;101044.03;;;31.49;nan
23223;BME280;11780;13.904;100.620;2023-09-19T19:16:30;101049.22;;;31.51;nan
23223;BME280;11780;13.904;100.620;2023-09-19T19:19:01;101042.38;;;31.48;nan
23223;BME280;11780;13.904;100.620;2023-09-19T19:21:32;101050.69;;;31.48;nan
23223;BME280;11780;13.904;100.620;2023-09-19T19:24:04;101038.78;;;31.48;nan
23223;BME280;11780;13.904;100.620;2023-09-19T19:26:34;101036.38;;;31.46;nan
23223;BME280;11780;13.904;100.620;2023-09-19T19:29:05;101028.56;;;31.48;nan
23223;BME280;11780;13.904;100.620;2023-09-19T19:31:36;101018.63;;;31.47;nan
23223;BME280;11780;13.904;100.620;2023-09-19T19:34:07;101016.69;;;31.48;nan
23223;BME280;11780;13.904;100.620;2023-09-19T19:36:37;101014.25;;;31.46;nan
23223;BME280;11780;13.904;100.620;2023-09-19T19:39:08;101024.66;;;31.49;nan
23223;BME280;11780;13.904;100.620;2023-09-19T19:41:41;101032.13;;;31.49;nan
23223;BME280;11780;13.904;100.620;2023-09-19T19:44:13;101032.63;;;31.51;nan
23223;BME280;11780;13.904;100.620;2023-09-19T19:46:44;101030.19;;;31.49;nan
23223;BME280;11780;13.904;100.620;2023-09-19T19:49:14;101030.19;;;31.49;nan
23223;BME280;11780;13.904;100.620;2023-09-19T19:51:46;101034.09;;;31.48;nan
23223;BME280;11780;13.904;100.620;2023-09-19T19:54:17;101028.56;;;31.48;nan
23223;BME280;11780;13.904;100.620;2023-09-19T19:56:48;101027.56;;;31.44;nan
23223;BME280;11780;13.904;100.620;2023-09-19T19:59:18;101025.63;;;31.44;nan
23223;BME280;11780;13.904;100.620;2023-09-19T20:01:49;101026.44;;;31.45;nan
23223;BME280;11780;13.904;100.620;2023-09-19T20:04:20;101032.47;;;31.47;nan
23223;BME280;11780;13.904;100.620;2023-09-19T20:06:50;101024.81;;;31.44;nan
23223;BME280;11780;13.904;100.620;2023-09-19T20:09:21;101018.16;;;31.45;nan
23223;BME280;11780;13.904;100.620;2023-09-19T20:11:52;101015.88;;;31.47;nan
23223;BME280;11780;13.904;100.620;2023-09-19T20:14:22;101030.84;;;31.46;nan
23223;BME280;11780;13.904;100.620;2023-09-19T20:16:55;101029.03;;;31.41;nan
23223;BME280;11780;13.904;100.620;2023-09-19T20:19:26;101034.72;;;31.45;nan
23223;BME280;11780;13.904;100.620;2023-09-19T20:22:03;101038.78;;;31.48;nan
23223;BME280;11780;13.904;100.620;2023-09-19T20:24:38;101025.31;;;31.46;nan
23223;BME280;11780;13.904;100.620;2023-09-19T20:27:08;101013.91;;;31.48;nan
23223;BME280;11780;13.904;100.620;2023-09-19T20:29:39;101013.91;;;31.48;nan
23223;BME280;11780;13.904;100.620;2023-09-19T20:32:10;101018.94;;;31.46;nan
23223;BME280;11780;13.904;100.620;2023-09-19T20:34:41;101023.03;;;31.48;nan
23223;BME280;11780;13.904;100.620;2023-09-19T20:37:11;101027.56;;;31.44;nan
23223;BME280;11780;13.904;100.620;2023-09-19T20:39:42;101016.50;;;31.44;nan
23223;BME280;11780;13.904;100.620;2023-09-19T20:42:13;101017.66;;;31.43;nan
23223;BME280;11780;13.904;100.620;2023-09-19T20:44:43;101019.28;;;31.44;nan
23223;BME280;11780;13.904;100.620;2023-09-19T20:47:14;101017.66;;;31.43;nan
23223;BME280;11780;13.904;100.620;2023-09-19T20:49:45;101023.66;;;31.45;nan
23223;BME280;11780;13.904;100.620;2023-09-19T20:52:16;101017.16;;;31.41;nan
23223;BME280;11780;13.904;100.620;2023-09-19T20:54:48;101015.50;;;31.40;nan
23223;BME280;11780;13.904;100.620;2023-09-19T20:57:18;101013.09;;;31.38;nan
23223;BME280;11780;13.904;100.620;2023-09-19T20:59:51;101015.50;;;31.40;nan
23223;BME280;11780;13.904;100.620;2023-09-19T21:02:22;101024.63;;;31.40;nan
23223;BME280;11780;13.904;100.620;2023-09-19T21:04:53;101018.63;;;31.38;nan
23223;BME280;11780;13.904;100.620;2023-09-19T21:07:24;101015.03;;;31.38;nan
23223;BME280;11780;13.904;100.620;2023-09-19T21:09:55;101005.75;;;31.34;nan
23223;BME280;11780;13.904;100.620;2023-09-19T21:12:25;101005.75;;;31.34;nan
23223;BME280;11780;13.904;100.620;2023-09-19T21:14:56;101008.53;;;31.34;nan
23223;BME280;11780;13.904;100.620;2023-09-19T21:17:29;101008.19;;;31.35;nan
23223;BME280;11780;13.904;100.620;2023-09-19T21:20:00;101007.38;;;31.35;nan
23223;BME280;11780;13.904;100.620;2023-09-19T21:22:30;101007.38;;;31.35;nan
23223;BME280;11780;13.904;100.620;2023-09-19T21:25:01;101008.19;;;31.35;nan
23223;BME280;11780;13.904;100.620;2023-09-19T21:27:31;101012.59;;;31.36;nan
23223;BME280;11780;13.904;100.620;2023-09-19T21:30:02;101014.06;;;31.34;nan
23223;BME280;11780;13.904;100.620;2023-09-19T21:32:34;101015.19;;;31.33;nan
23223;BME280;11780;13.904;100.620;2023-09-19T21:35:06;101008.19;;;31.35;nan
23223;BME280;11780;13.904;100.620;2023-09-19T21:37:36;101006.06;;;31.32;nan
23223;BME280;11780;13.904;100.620;2023-09-19T21:40:08;101009.97;;;31.31;nan
23223;BME280;11780;13.904;100.620;2023-09-19T21:42:38;101012.91;;;31.35;nan
23223;BME280;11780;13.904;100.620;2023-09-19T21:45:09;101005.25;;;31.32;nan
23223;BME280;11780;13.904;100.620;2023-09-19T21:47:39;101007.69;;;31.33;nan
23223;BME280;11780;13.904;100.620;2023-09-19T21:50:10;101010.28;;;31.29;nan
23223;BME280;11780;13.904;100.620;2023-09-19T21:52:40;101011.91;;;31.31;nan
23223;BME280;11780;13.904;100.620;2023-09-19T21:55:11;101017.44;;;31.31;nan
23223;BME280;11780;13.904;100.620;2023-09-19T21:57:41;101020.53;;;31.29;nan
23223;BME280;11780;13.904;100.620;2023-09-19T22:00:12;101019.22;;;31.26;nan
23223;BME280;11780;13.904;100.620;2023-09-19T22:03:18;101032.06;;;31.31;nan
23223;BME280;11780;13.904;100.620;2023-09-19T22:05:48;101030.13;;;31.32;nan
23223;BME280;11780;13.904;100.620;2023-09-19T22:08:19;101024.59;;;31.32;nan
23223;BME280;11780;13.904;100.620;2023-09-19T22:10:49;101014.69;;;31.31;nan
23223;BME280;11780;13.904;100.620;2023-09-19T22:13:20;101025.25;;;31.28;nan
23223;BME280;11780;13.904;100.620;2023-09-19T22:15:58;101029.63;;;31.29;nan
23223;BME280;11780;13.904;100.620;2023-09-19T22:18:29;101017.78;;;31.29;nan
23223;BME280;11780;13.904;100.620;2023-09-19T22:21:01;101027.38;;;31.32;nan
23223;BME280;11780;13.904;100.620;2023-09-19T22:23:41;101022.16;;;31.30;nan
23223;BME280;11780;13.904;100.620;2023-09-19T22:26:16;101032.41;;;31.29;nan
23223;BME280;11780;13.904;100.620;2023-09-19T22:28:53;101028.34;;;31.27;nan
23223;BME280;11780;13.904;100.620;2023-09-19T22:31:28;101026.06;;;31.29;nan
23223;BME280;11780;13.904;100.620;2023-09-19T22:34:09;101020.84;;;31.27;nan
23223;BME280;11780;13.904;100.620;2023-09-19T22:36:41;101018.25;;;31.31;nan
23223;BME280;11780;13.904;100.620;2023-09-19T22:39:18;101027.50;;;31.26;nan
23223;BME280;11780;13.904;100.620;2023-09-19T22:41:54;101031.59;;;31.29;nan
23223;BME280;11780;13.904;100.620;2023-09-19T22:44:34;101036.31;;;31.28;nan
23223;BME280;11780;13.904;100.620;2023-09-19T22:47:06;101037.75;;;31.26;nan
23223;BME280;11780;13.904;100.620;2023-09-19T22:49:37;101037.75;;;31.26;nan
23223;BME280;11780;13.904;100.620;2023-09-19T22:52:07;101045.22;;;31.25;nan
23223;BME280;11780;13.904;100.620;2023-09-19T22:54:39;101047.50;;;31.23;nan
23223;BME280;11780;13.904;100.620;2023-09-19T22:57:10;101045.56;;;31.24;nan
23223;BME280;11780;13.904;100.620;2023-09-19T23:01:10;101056.28;;;31.25;71.44
23223;BME280;11780;13.904;100.620;2023-09-19T23:03:56;101063.59;;;31.21;71.18
23223;BME280;11780;13.904;100.620;2023-09-19T23:06:45;101070.72;;;31.22;70.87
23223;BME280;11780;13.904;100.620;2023-09-19T23:09:24;101070.72;;;31.22;71.17
23223;BME280;11780;13.904;100.620;2023-09-19T23:12:01;101067.50;;;31.20;71.22
23223;BME280;11780;13.904;100.620;2023-09-19T23:14:41;101074.66;;;31.21;71.31
23223;BME280;11780;13.904;100.620;2023-09-19T23:17:11;101070.72;;;31.22;71.37
23223;BME280;11780;13.904;100.620;2023-09-19T23:19:43;101080.19;;;31.21;71.11
23223;BME280;11780;13.904;100.620;2023-09-19T23:22:18;101080.81;;;31.18;71.47
23223;BME280;11780;13.904;100.620;2023-09-19T23:24:58;101086.34;;;31.18;71.61
23223;BME280;11780;13.904;100.620;2023-09-19T23:27:39;101086.63;;;31.17;71.44
23223;BME280;11780;13.904;100.620;2023-09-19T23:30:16;101085.00;;;31.16;71.35
23223;BME280;11780;13.904;100.620;2023-09-19T23:32:47;101092.50;;;31.15;71.52
23223;BME280;11780;13.904;100.620;2023-09-19T23:35:17;101096.06;;;31.16;71.42
23223;BME280;11780;13.904;100.620;2023-09-19T23:37:49;101101.91;;;31.14;71.32
23223;BME280;11780;13.904;100.620;2023-09-19T23:40:21;101102.22;;;31.12;71.71
23223;BME280;11780;13.904;100.620;2023-09-19T23:42:55;101107.09;;;31.16;71.41
23223;BME280;11780;13.904;100.620;2023-09-19T23:45:25;101106.91;;;31.12;71.66
23223;BME280;11780;13.904;100.620;2023-09-19T23:47:57;101112.44;;;31.12;71.63
23223;BME280;11780;13.904;100.620;2023-09-19T23:50:27;101119.00;;;31.16;71.67